sensor_id;sensor_type;location;lat;lon;timestamp;P1;durP1;ratioP1;P2;durP2;ratioP2
70929;SDS011;58588;48.102;19.682;2022-08-25T00:02:38;15.65;;;6.13;;
70929;SDS011;58588;48.102;19.682;2022-08-25T00:05:40;13.65;;;5.97;;
70929;SDS011;58588;48.102;19.682;2022-08-25T00:08:43;12.30;;;6.05;;
70929;SDS011;58588;48.102;19.682;2022-08-25T00:11:46;14.95;;;5.55;;
70929;SDS011;58588;48.102;19.682;2022-08-25T00:14:51;11.70;;;5.67;;
70929;SDS011;58588;48.102;19.682;2022-08-25T00:17:53;25.50;;;6.22;;
70929;SDS011;58588;48.102;19.682;2022-08-25T00:20:55;14.80;;;6.07;;
70929;SDS011;58588;48.102;19.682;2022-08-25T00:23:57;78.75;;;7.80;;
70929;SDS011;58588;48.102;19.682;2022-08-25T00:27:01;29.45;;;7.47;;
70929;SDS011;58588;48.102;19.682;2022-08-25T00:30:05;29.97;;;8.53;;
70929;SDS011;58588;48.102;19.682;2022-08-25T00:33:08;14.23;;;7.50;;
70929;SDS011;58588;48.102;19.682;2022-08-25T00:36:10;19.02;;;6.88;;
70929;SDS011;58588;48.102;19.682;2022-08-25T00:39:12;28.83;;;6.78;;
70929;SDS011;58588;48.102;19.682;2022-08-25T00:42:14;38.83;;;6.70;;
70929;SDS011;58588;48.102;19.682;2022-08-25T00:45:21;23.53;;;6.50;;
70929;SDS011;58588;48.102;19.682;2022-08-25T00:48:23;38.53;;;6.25;;
70929;SDS011;58588;48.102;19.682;2022-08-25T00:51:28;44.80;;;6.45;;
70929;SDS011;58588;48.102;19.682;2022-08-25T00:54:34;23.15;;;6.03;;
70929;SDS011;58588;48.102;19.682;2022-08-25T00:57:40;30.30;;;5.97;;
70929;SDS011;58588;48.102;19.682;2022-08-25T01:00:46;70.70;;;6.17;;
70929;SDS011;58588;48.102;19.682;2022-08-25T01:03:51;35.40;;;6.22;;
70929;SDS011;58588;48.102;19.682;2022-08-25T01:06:53;32.22;;;5.90;;
70929;SDS011;58588;48.102;19.682;2022-08-25T01:09:57;43.13;;;6.03;;
70929;SDS011;58588;48.102;19.682;2022-08-25T01:13:02;24.75;;;5.90;;
70929;SDS011;58588;48.102;19.682;2022-08-25T01:16:10;60.03;;;5.53;;
70929;SDS011;58588;48.102;19.682;2022-08-25T01:19:14;60.97;;;6.07;;
70929;SDS011;58588;48.102;19.682;2022-08-25T01:22:18;34.75;;;5.13;;
70929;SDS011;58588;48.102;19.682;2022-08-25T01:25:24;21.80;;;5.35;;
70929;SDS011;58588;48.102;19.682;2022-08-25T01:28:40;21.63;;;5.22;;
70929;SDS011;58588;48.102;19.682;2022-08-25T01:31:58;54.20;;;5.23;;
70929;SDS011;58588;48.102;19.682;2022-08-25T01:35:03;28.75;;;5.32;;
70929;SDS011;58588;48.102;19.682;2022-08-25T01:38:07;33.35;;;4.88;;
70929;SDS011;58588;48.102;19.682;2022-08-25T01:41:09;24.77;;;4.93;;
70929;SDS011;58588;48.102;19.682;2022-08-25T01:44:12;33.47;;;4.78;;
70929;SDS011;58588;48.102;19.682;2022-08-25T01:47:16;25.27;;;5.30;;
70929;SDS011;58588;48.102;19.682;2022-08-25T01:50:18;26.98;;;4.55;;
70929;SDS011;58588;48.102;19.682;2022-08-25T01:53:23;17.88;;;4.88;;
70929;SDS011;58588;48.102;19.682;2022-08-25T01:56:28;20.33;;;5.35;;
70929;SDS011;58588;48.102;19.682;2022-08-25T01:59:31;12.95;;;4.43;;
70929;SDS011;58588;48.102;19.682;2022-08-25T02:02:33;14.13;;;4.67;;
70929;SDS011;58588;48.102;19.682;2022-08-25T02:05:34;15.68;;;4.38;;
70929;SDS011;58588;48.102;19.682;2022-08-25T02:08:38;23.50;;;4.80;;
70929;SDS011;58588;48.102;19.682;2022-08-25T02:11:41;13.68;;;4.60;;
70929;SDS011;58588;48.102;19.682;2022-08-25T02:14:44;12.70;;;4.43;;
70929;SDS011;58588;48.102;19.682;2022-08-25T02:17:47;20.60;;;4.50;;
70929;SDS011;58588;48.102;19.682;2022-08-25T02:20:49;16.35;;;4.55;;
70929;SDS011;58588;48.102;19.682;2022-08-25T02:23:52;11.20;;;4.25;;
70929;SDS011;58588;48.102;19.682;2022-08-25T02:26:56;11.10;;;4.57;;
70929;SDS011;58588;48.102;19.682;2022-08-25T02:29:58;23.95;;;5.07;;
70929;SDS011;58588;48.102;19.682;2022-08-25T02:33:00;18.00;;;4.50;;
70929;SDS011;58588;48.102;19.682;2022-08-25T02:36:03;34.80;;;4.40;;
70929;SDS011;58588;48.102;19.682;2022-08-25T02:39:08;9.55;;;3.80;;
70929;SDS011;58588;48.102;19.682;2022-08-25T02:42:11;18.95;;;4.03;;
70929;SDS011;58588;48.102;19.682;2022-08-25T02:45:13;22.65;;;3.60;;
70929;SDS011;58588;48.102;19.682;2022-08-25T02:48:15;27.13;;;4.13;;
70929;SDS011;58588;48.102;19.682;2022-08-25T02:51:18;13.60;;;3.90;;
70929;SDS011;58588;48.102;19.682;2022-08-25T02:54:21;10.50;;;3.50;;
70929;SDS011;58588;48.102;19.682;2022-08-25T02:57:25;26.45;;;3.58;;
70929;SDS011;58588;48.102;19.682;2022-08-25T03:00:26;18.75;;;3.40;;
70929;SDS011;58588;48.102;19.682;2022-08-25T03:03:28;9.67;;;3.90;;
70929;SDS011;58588;48.102;19.682;2022-08-25T03:06:30;14.00;;;3.90;;
70929;SDS011;58588;48.102;19.682;2022-08-25T03:09:34;10.63;;;3.53;;
70929;SDS011;58588;48.102;19.682;2022-08-25T03:12:36;13.38;;;3.65;;
70929;SDS011;58588;48.102;19.682;2022-08-25T03:15:40;9.75;;;3.20;;
70929;SDS011;58588;48.102;19.682;2022-08-25T03:18:42;11.90;;;3.73;;
70929;SDS011;58588;48.102;19.682;2022-08-25T03:21:44;15.20;;;4.05;;
70929;SDS011;58588;48.102;19.682;2022-08-25T03:24:47;12.02;;;4.20;;
70929;SDS011;58588;48.102;19.682;2022-08-25T03:27:49;13.30;;;3.50;;
70929;SDS011;58588;48.102;19.682;2022-08-25T03:30:51;8.45;;;3.40;;
70929;SDS011;58588;48.102;19.682;2022-08-25T03:33:53;8.83;;;3.67;;
70929;SDS011;58588;48.102;19.682;2022-08-25T03:36:56;9.32;;;2.97;;
70929;SDS011;58588;48.102;19.682;2022-08-25T03:40:00;7.28;;;3.20;;
70929;SDS011;58588;48.102;19.682;2022-08-25T03:43:03;43.25;;;4.07;;
70929;SDS011;58588;48.102;19.682;2022-08-25T03:46:05;17.73;;;3.55;;
70929;SDS011;58588;48.102;19.682;2022-08-25T03:49:07;15.33;;;3.60;;
70929;SDS011;58588;48.102;19.682;2022-08-25T03:52:10;15.63;;;3.63;;
70929;SDS011;58588;48.102;19.682;2022-08-25T03:55:13;7.60;;;3.25;;
70929;SDS011;58588;48.102;19.682;2022-08-25T03:58:17;8.25;;;2.88;;
70929;SDS011;58588;48.102;19.682;2022-08-25T04:01:20;6.90;;;3.15;;
70929;SDS011;58588;48.102;19.682;2022-08-25T04:04:22;9.40;;;2.97;;
70929;SDS011;58588;48.102;19.682;2022-08-25T04:07:24;10.48;;;3.00;;
70929;SDS011;58588;48.102;19.682;2022-08-25T04:10:28;13.90;;;3.40;;
70929;SDS011;58588;48.102;19.682;2022-08-25T04:13:30;7.88;;;2.92;;
70929;SDS011;58588;48.102;19.682;2022-08-25T04:16:32;17.20;;;3.30;;
70929;SDS011;58588;48.102;19.682;2022-08-25T04:19:35;10.57;;;3.10;;
70929;SDS011;58588;48.102;19.682;2022-08-25T04:22:37;12.93;;;2.90;;
70929;SDS011;58588;48.102;19.682;2022-08-25T04:25:41;15.18;;;3.10;;
70929;SDS011;58588;48.102;19.682;2022-08-25T04:28:43;26.13;;;3.33;;
70929;SDS011;58588;48.102;19.682;2022-08-25T04:31:45;7.35;;;2.92;;
70929;SDS011;58588;48.102;19.682;2022-08-25T04:34:49;12.70;;;3.03;;
70929;SDS011;58588;48.102;19.682;2022-08-25T04:37:51;15.98;;;3.17;;
70929;SDS011;58588;48.102;19.682;2022-08-25T04:40:58;21.55;;;3.55;;
70929;SDS011;58588;48.102;19.682;2022-08-25T04:44:01;23.83;;;3.40;;
70929;SDS011;58588;48.102;19.682;2022-08-25T04:47:04;31.90;;;3.50;;
70929;SDS011;58588;48.102;19.682;2022-08-25T04:50:06;9.23;;;3.13;;
70929;SDS011;58588;48.102;19.682;2022-08-25T04:53:09;12.13;;;3.95;;
70929;SDS011;58588;48.102;19.682;2022-08-25T04:56:13;16.38;;;3.30;;
70929;SDS011;58588;48.102;19.682;2022-08-25T04:59:17;11.32;;;3.50;;
70929;SDS011;58588;48.102;19.682;2022-08-25T05:02:19;24.42;;;3.45;;
70929;SDS011;58588;48.102;19.682;2022-08-25T05:05:21;17.20;;;3.40;;
70929;SDS011;58588;48.102;19.682;2022-08-25T05:08:23;36.40;;;3.85;;
70929;SDS011;58588;48.102;19.682;2022-08-25T05:11:27;18.95;;;3.25;;
70929;SDS011;58588;48.102;19.682;2022-08-25T05:14:29;24.58;;;3.53;;
70929;SDS011;58588;48.102;19.682;2022-08-25T05:17:32;44.35;;;3.60;;
70929;SDS011;58588;48.102;19.682;2022-08-25T05:20:34;31.87;;;3.50;;
70929;SDS011;58588;48.102;19.682;2022-08-25T05:23:37;29.27;;;3.40;;
70929;SDS011;58588;48.102;19.682;2022-08-25T05:26:42;33.03;;;4.30;;
70929;SDS011;58588;48.102;19.682;2022-08-25T05:29:44;19.38;;;3.70;;
70929;SDS011;58588;48.102;19.682;2022-08-25T05:32:46;23.17;;;3.50;;
70929;SDS011;58588;48.102;19.682;2022-08-25T05:35:50;31.53;;;3.33;;
70929;SDS011;58588;48.102;19.682;2022-08-25T05:38:54;10.77;;;3.00;;
70929;SDS011;58588;48.102;19.682;2022-08-25T05:41:58;22.55;;;3.53;;
70929;SDS011;58588;48.102;19.682;2022-08-25T05:45:00;13.32;;;4.07;;
70929;SDS011;58588;48.102;19.682;2022-08-25T05:48:02;16.75;;;3.63;;
70929;SDS011;58588;48.102;19.682;2022-08-25T05:51:05;11.33;;;3.23;;
70929;SDS011;58588;48.102;19.682;2022-08-25T05:54:09;13.32;;;3.50;;
70929;SDS011;58588;48.102;19.682;2022-08-25T05:57:14;21.23;;;3.35;;
70929;SDS011;58588;48.102;19.682;2022-08-25T06:00:16;10.13;;;3.00;;
70929;SDS011;58588;48.102;19.682;2022-08-25T06:03:19;31.17;;;3.92;;
70929;SDS011;58588;48.102;19.682;2022-08-25T06:06:19;10.50;;;3.57;;
70929;SDS011;58588;48.102;19.682;2022-08-25T06:09:23;13.13;;;3.33;;
70929;SDS011;58588;48.102;19.682;2022-08-25T06:12:27;18.20;;;3.50;;
70929;SDS011;58588;48.102;19.682;2022-08-25T06:15:30;23.73;;;3.80;;
70929;SDS011;58588;48.102;19.682;2022-08-25T06:18:32;13.70;;;3.90;;
70929;SDS011;58588;48.102;19.682;2022-08-25T06:21:34;14.13;;;3.72;;
70929;SDS011;58588;48.102;19.682;2022-08-25T06:24:38;10.85;;;3.60;;
70929;SDS011;58588;48.102;19.682;2022-08-25T06:27:41;31.70;;;3.72;;
70929;SDS011;58588;48.102;19.682;2022-08-25T06:30:43;11.10;;;3.70;;
70929;SDS011;58588;48.102;19.682;2022-08-25T06:33:46;6.13;;;3.23;;
70929;SDS011;58588;48.102;19.682;2022-08-25T06:36:48;11.75;;;3.58;;
70929;SDS011;58588;48.102;19.682;2022-08-25T06:39:50;8.85;;;3.72;;
70929;SDS011;58588;48.102;19.682;2022-08-25T06:42:54;15.57;;;3.70;;
70929;SDS011;58588;48.102;19.682;2022-08-25T06:45:56;14.70;;;3.63;;
70929;SDS011;58588;48.102;19.682;2022-08-25T06:48:58;14.23;;;3.43;;
70929;SDS011;58588;48.102;19.682;2022-08-25T06:52:00;7.05;;;3.50;;
70929;SDS011;58588;48.102;19.682;2022-08-25T06:55:03;9.43;;;3.65;;
70929;SDS011;58588;48.102;19.682;2022-08-25T06:58:07;8.20;;;3.53;;
70929;SDS011;58588;48.102;19.682;2022-08-25T07:01:10;8.38;;;3.40;;
70929;SDS011;58588;48.102;19.682;2022-08-25T07:04:14;7.80;;;3.90;;
70929;SDS011;58588;48.102;19.682;2022-08-25T07:07:16;10.88;;;4.15;;
70929;SDS011;58588;48.102;19.682;2022-08-25T07:10:18;11.50;;;4.30;;
70929;SDS011;58588;48.102;19.682;2022-08-25T07:13:21;10.95;;;3.92;;
70929;SDS011;58588;48.102;19.682;2022-08-25T07:16:23;10.48;;;4.22;;
70929;SDS011;58588;48.102;19.682;2022-08-25T07:19:25;14.23;;;5.00;;
70929;SDS011;58588;48.102;19.682;2022-08-25T07:22:27;13.90;;;4.95;;
70929;SDS011;58588;48.102;19.682;2022-08-25T07:25:29;10.88;;;4.43;;
70929;SDS011;58588;48.102;19.682;2022-08-25T07:28:34;14.88;;;5.03;;
70929;SDS011;58588;48.102;19.682;2022-08-25T07:31:37;16.23;;;4.70;;
70929;SDS011;58588;48.102;19.682;2022-08-25T07:34:40;11.07;;;4.50;;
70929;SDS011;58588;48.102;19.682;2022-08-25T07:37:59;10.77;;;4.32;;
70929;SDS011;58588;48.102;19.682;2022-08-25T07:41:02;13.73;;;4.70;;
70929;SDS011;58588;48.102;19.682;2022-08-25T07:44:06;12.15;;;4.68;;
70929;SDS011;58588;48.102;19.682;2022-08-25T07:47:10;13.68;;;4.63;;
70929;SDS011;58588;48.102;19.682;2022-08-25T07:50:14;14.27;;;4.50;;
70929;SDS011;58588;48.102;19.682;2022-08-25T07:53:16;12.52;;;4.55;;
70929;SDS011;58588;48.102;19.682;2022-08-25T07:56:19;14.93;;;5.32;;
70929;SDS011;58588;48.102;19.682;2022-08-25T07:59:22;15.82;;;4.60;;
70929;SDS011;58588;48.102;19.682;2022-08-25T08:02:24;13.35;;;4.68;;
70929;SDS011;58588;48.102;19.682;2022-08-25T08:05:27;15.37;;;5.30;;
70929;SDS011;58588;48.102;19.682;2022-08-25T08:08:29;18.05;;;5.65;;
70929;SDS011;58588;48.102;19.682;2022-08-25T08:11:32;18.50;;;5.55;;
70929;SDS011;58588;48.102;19.682;2022-08-25T08:14:41;17.15;;;5.13;;
70929;SDS011;58588;48.102;19.682;2022-08-25T08:17:43;18.27;;;5.32;;
70929;SDS011;58588;48.102;19.682;2022-08-25T08:20:46;21.87;;;5.43;;
70929;SDS011;58588;48.102;19.682;2022-08-25T08:23:49;16.02;;;5.45;;
70929;SDS011;58588;48.102;19.682;2022-08-25T08:26:51;27.15;;;5.90;;
70929;SDS011;58588;48.102;19.682;2022-08-25T08:29:55;18.25;;;5.40;;
70929;SDS011;58588;48.102;19.682;2022-08-25T08:32:57;20.33;;;5.55;;
70929;SDS011;58588;48.102;19.682;2022-08-25T08:36:00;22.63;;;6.20;;
70929;SDS011;58588;48.102;19.682;2022-08-25T08:39:05;15.40;;;5.72;;
70929;SDS011;58588;48.102;19.682;2022-08-25T08:42:13;18.38;;;5.47;;
70929;SDS011;58588;48.102;19.682;2022-08-25T08:45:27;17.27;;;5.78;;
70929;SDS011;58588;48.102;19.682;2022-08-25T08:48:43;17.38;;;5.38;;
70929;SDS011;58588;48.102;19.682;2022-08-25T08:51:58;22.43;;;5.10;;
70929;SDS011;58588;48.102;19.682;2022-08-25T08:55:03;20.13;;;5.70;;
70929;SDS011;58588;48.102;19.682;2022-08-25T08:58:12;17.30;;;4.90;;
70929;SDS011;58588;48.102;19.682;2022-08-25T09:01:26;24.38;;;5.55;;
70929;SDS011;58588;48.102;19.682;2022-08-25T09:04:32;17.95;;;4.60;;
70929;SDS011;58588;48.102;19.682;2022-08-25T09:07:39;16.40;;;5.40;;
70929;SDS011;58588;48.102;19.682;2022-08-25T09:10:56;19.50;;;5.20;;
70929;SDS011;58588;48.102;19.682;2022-08-25T09:14:07;18.35;;;4.97;;
70929;SDS011;58588;48.102;19.682;2022-08-25T09:17:20;17.15;;;4.93;;
70929;SDS011;58588;48.102;19.682;2022-08-25T09:20:42;20.23;;;4.82;;
70929;SDS011;58588;48.102;19.682;2022-08-25T09:24:01;28.37;;;5.40;;
70929;SDS011;58588;48.102;19.682;2022-08-25T09:27:17;20.13;;;5.32;;
70929;SDS011;58588;48.102;19.682;2022-08-25T09:30:26;21.98;;;5.28;;
70929;SDS011;58588;48.102;19.682;2022-08-25T09:33:35;16.40;;;4.80;;
70929;SDS011;58588;48.102;19.682;2022-08-25T09:36:37;17.98;;;4.68;;
70929;SDS011;58588;48.102;19.682;2022-08-25T09:39:39;21.47;;;5.13;;
70929;SDS011;58588;48.102;19.682;2022-08-25T09:42:44;21.52;;;5.22;;
70929;SDS011;58588;48.102;19.682;2022-08-25T09:45:49;25.75;;;5.80;;
70929;SDS011;58588;48.102;19.682;2022-08-25T09:49:09;15.32;;;4.95;;
70929;SDS011;58588;48.102;19.682;2022-08-25T09:52:28;18.52;;;5.13;;
70929;SDS011;58588;48.102;19.682;2022-08-25T09:55:33;18.77;;;5.13;;
70929;SDS011;58588;48.102;19.682;2022-08-25T09:58:38;24.02;;;5.35;;
70929;SDS011;58588;48.102;19.682;2022-08-25T10:01:46;22.58;;;4.53;;
70929;SDS011;58588;48.102;19.682;2022-08-25T10:04:51;14.70;;;4.72;;
70929;SDS011;58588;48.102;19.682;2022-08-25T10:07:54;19.20;;;5.18;;
70929;SDS011;58588;48.102;19.682;2022-08-25T10:10:58;18.63;;;5.00;;
70929;SDS011;58588;48.102;19.682;2022-08-25T10:14:03;14.38;;;4.90;;
70929;SDS011;58588;48.102;19.682;2022-08-25T10:17:18;16.60;;;4.85;;
70929;SDS011;58588;48.102;19.682;2022-08-25T10:20:26;20.55;;;5.20;;
70929;SDS011;58588;48.102;19.682;2022-08-25T10:23:29;17.40;;;4.47;;
70929;SDS011;58588;48.102;19.682;2022-08-25T10:26:36;20.20;;;5.17;;
70929;SDS011;58588;48.102;19.682;2022-08-25T10:33:17;19.02;;;5.13;;
70929;SDS011;58588;48.102;19.682;2022-08-25T10:36:28;16.80;;;4.65;;
70929;SDS011;58588;48.102;19.682;2022-08-25T10:39:41;17.55;;;4.43;;
70929;SDS011;58588;48.102;19.682;2022-08-25T10:42:48;19.73;;;5.20;;
70929;SDS011;58588;48.102;19.682;2022-08-25T10:46:08;19.55;;;4.85;;
70929;SDS011;58588;48.102;19.682;2022-08-25T10:49:17;20.73;;;4.47;;
70929;SDS011;58588;48.102;19.682;2022-08-25T10:52:25;19.65;;;4.50;;
70929;SDS011;58588;48.102;19.682;2022-08-25T10:55:33;21.20;;;4.72;;
70929;SDS011;58588;48.102;19.682;2022-08-25T10:58:53;23.77;;;4.63;;
70929;SDS011;58588;48.102;19.682;2022-08-25T11:05:46;19.25;;;4.70;;
70929;SDS011;58588;48.102;19.682;2022-08-25T11:08:53;19.70;;;4.50;;
70929;SDS011;58588;48.102;19.682;2022-08-25T11:12:01;15.93;;;4.32;;
70929;SDS011;58588;48.102;19.682;2022-08-25T11:15:09;18.60;;;4.70;;
70929;SDS011;58588;48.102;19.682;2022-08-25T11:18:18;14.88;;;4.60;;
70929;SDS011;58588;48.102;19.682;2022-08-25T11:21:22;16.77;;;4.45;;
70929;SDS011;58588;48.102;19.682;2022-08-25T11:24:37;17.92;;;4.82;;
70929;SDS011;58588;48.102;19.682;2022-08-25T11:27:51;19.08;;;4.28;;
70929;SDS011;58588;48.102;19.682;2022-08-25T11:30:58;17.63;;;4.13;;
70929;SDS011;58588;48.102;19.682;2022-08-25T11:34:02;18.13;;;4.10;;
70929;SDS011;58588;48.102;19.682;2022-08-25T11:37:06;13.55;;;3.92;;
70929;SDS011;58588;48.102;19.682;2022-08-25T11:43:50;15.05;;;3.63;;
70929;SDS011;58588;48.102;19.682;2022-08-25T11:47:06;16.57;;;4.40;;
70929;SDS011;58588;48.102;19.682;2022-08-25T11:50:23;19.00;;;4.07;;
70929;SDS011;58588;48.102;19.682;2022-08-25T11:53:30;20.83;;;4.10;;
70929;SDS011;58588;48.102;19.682;2022-08-25T11:56:36;15.75;;;4.05;;
70929;SDS011;58588;48.102;19.682;2022-08-25T12:10:51;13.68;;;3.78;;
70929;SDS011;58588;48.102;19.682;2022-08-25T12:13:57;16.42;;;4.60;;
70929;SDS011;58588;48.102;19.682;2022-08-25T12:17:16;16.70;;;4.07;;
70929;SDS011;58588;48.102;19.682;2022-08-25T12:27:24;16.63;;;3.83;;
70929;SDS011;58588;48.102;19.682;2022-08-25T12:30:37;16.52;;;4.22;;
70929;SDS011;58588;48.102;19.682;2022-08-25T12:33:48;13.00;;;3.80;;
70929;SDS011;58588;48.102;19.682;2022-08-25T12:37:04;18.33;;;4.57;;
70929;SDS011;58588;48.102;19.682;2022-08-25T12:40:13;13.73;;;3.45;;
70929;SDS011;58588;48.102;19.682;2022-08-25T12:43:25;16.83;;;3.97;;
70929;SDS011;58588;48.102;19.682;2022-08-25T12:46:36;16.63;;;4.18;;
70929;SDS011;58588;48.102;19.682;2022-08-25T12:49:39;14.10;;;4.10;;
70929;SDS011;58588;48.102;19.682;2022-08-25T12:52:41;18.07;;;4.27;;
70929;SDS011;58588;48.102;19.682;2022-08-25T12:55:45;17.73;;;4.13;;
70929;SDS011;58588;48.102;19.682;2022-08-25T12:58:53;28.92;;;4.10;;
70929;SDS011;58588;48.102;19.682;2022-08-25T13:13:15;15.27;;;3.67;;
70929;SDS011;58588;48.102;19.682;2022-08-25T13:16:29;19.75;;;3.95;;
70929;SDS011;58588;48.102;19.682;2022-08-25T13:19:34;18.60;;;3.78;;
70929;SDS011;58588;48.102;19.682;2022-08-25T13:22:37;18.50;;;3.50;;
70929;SDS011;58588;48.102;19.682;2022-08-25T13:25:45;18.57;;;4.00;;
70929;SDS011;58588;48.102;19.682;2022-08-25T13:28:49;18.00;;;3.92;;
70929;SDS011;58588;48.102;19.682;2022-08-25T13:31:55;14.75;;;3.80;;
70929;SDS011;58588;48.102;19.682;2022-08-25T13:35:13;15.48;;;3.60;;
70929;SDS011;58588;48.102;19.682;2022-08-25T13:38:17;12.93;;;3.53;;
70929;SDS011;58588;48.102;19.682;2022-08-25T13:41:21;16.10;;;3.40;;
70929;SDS011;58588;48.102;19.682;2022-08-25T13:44:25;14.95;;;3.55;;
70929;SDS011;58588;48.102;19.682;2022-08-25T13:47:32;19.42;;;3.53;;
70929;SDS011;58588;48.102;19.682;2022-08-25T13:50:37;15.63;;;3.60;;
70929;SDS011;58588;48.102;19.682;2022-08-25T13:53:46;16.42;;;3.60;;
70929;SDS011;58588;48.102;19.682;2022-08-25T13:56:50;13.17;;;3.40;;
70929;SDS011;58588;48.102;19.682;2022-08-25T13:59:53;12.70;;;3.33;;
70929;SDS011;58588;48.102;19.682;2022-08-25T14:03:00;18.45;;;3.70;;
70929;SDS011;58588;48.102;19.682;2022-08-25T14:06:07;12.38;;;3.50;;
70929;SDS011;58588;48.102;19.682;2022-08-25T14:09:13;17.20;;;3.58;;
70929;SDS011;58588;48.102;19.682;2022-08-25T14:12:31;9.67;;;3.57;;
70929;SDS011;58588;48.102;19.682;2022-08-25T14:15:35;13.27;;;3.83;;
70929;SDS011;58588;48.102;19.682;2022-08-25T14:18:37;17.08;;;3.80;;
70929;SDS011;58588;48.102;19.682;2022-08-25T14:21:41;12.30;;;3.30;;
70929;SDS011;58588;48.102;19.682;2022-08-25T14:24:43;12.80;;;3.30;;
70929;SDS011;58588;48.102;19.682;2022-08-25T14:27:52;25.10;;;3.87;;
70929;SDS011;58588;48.102;19.682;2022-08-25T14:30:57;14.52;;;3.53;;
70929;SDS011;58588;48.102;19.682;2022-08-25T14:34:01;14.18;;;3.33;;
70929;SDS011;58588;48.102;19.682;2022-08-25T14:37:11;13.00;;;3.58;;
70929;SDS011;58588;48.102;19.682;2022-08-25T14:40:17;14.70;;;3.13;;
70929;SDS011;58588;48.102;19.682;2022-08-25T14:43:19;17.60;;;3.77;;
70929;SDS011;58588;48.102;19.682;2022-08-25T14:46:22;16.02;;;3.25;;
70929;SDS011;58588;48.102;19.682;2022-08-25T14:49:27;14.90;;;3.38;;
70929;SDS011;58588;48.102;19.682;2022-08-25T14:52:34;14.15;;;3.70;;
70929;SDS011;58588;48.102;19.682;2022-08-25T14:55:36;13.88;;;3.80;;
70929;SDS011;58588;48.102;19.682;2022-08-25T14:58:38;14.87;;;3.40;;
70929;SDS011;58588;48.102;19.682;2022-08-25T15:01:41;15.32;;;3.53;;
70929;SDS011;58588;48.102;19.682;2022-08-25T15:04:43;16.48;;;3.60;;
70929;SDS011;58588;48.102;19.682;2022-08-25T15:08:06;13.63;;;3.58;;
70929;SDS011;58588;48.102;19.682;2022-08-25T15:11:26;15.27;;;3.50;;
70929;SDS011;58588;48.102;19.682;2022-08-25T15:14:28;9.57;;;3.23;;
70929;SDS011;58588;48.102;19.682;2022-08-25T15:17:30;17.55;;;3.72;;
70929;SDS011;58588;48.102;19.682;2022-08-25T15:20:32;15.07;;;3.72;;
70929;SDS011;58588;48.102;19.682;2022-08-25T15:23:36;15.43;;;3.58;;
70929;SDS011;58588;48.102;19.682;2022-08-25T15:26:39;15.98;;;4.03;;
70929;SDS011;58588;48.102;19.682;2022-08-25T15:29:44;18.13;;;3.87;;
70929;SDS011;58588;48.102;19.682;2022-08-25T15:32:46;12.32;;;3.40;;
70929;SDS011;58588;48.102;19.682;2022-08-25T15:35:48;13.82;;;3.78;;
70929;SDS011;58588;48.102;19.682;2022-08-25T15:38:51;13.95;;;3.80;;
70929;SDS011;58588;48.102;19.682;2022-08-25T15:41:53;14.68;;;3.90;;
70929;SDS011;58588;48.102;19.682;2022-08-25T15:44:56;12.10;;;3.63;;
70929;SDS011;58588;48.102;19.682;2022-08-25T15:47:58;15.32;;;3.63;;
70929;SDS011;58588;48.102;19.682;2022-08-25T15:50:59;14.27;;;3.70;;
70929;SDS011;58588;48.102;19.682;2022-08-25T15:54:03;17.25;;;3.42;;
70929;SDS011;58588;48.102;19.682;2022-08-25T15:57:05;16.88;;;3.47;;
70929;SDS011;58588;48.102;19.682;2022-08-25T16:00:08;13.23;;;3.63;;
70929;SDS011;58588;48.102;19.682;2022-08-25T16:03:11;15.38;;;3.97;;
70929;SDS011;58588;48.102;19.682;2022-08-25T16:06:13;18.27;;;3.55;;
70929;SDS011;58588;48.102;19.682;2022-08-25T16:09:17;14.07;;;3.42;;
70929;SDS011;58588;48.102;19.682;2022-08-25T16:12:19;13.77;;;3.75;;
70929;SDS011;58588;48.102;19.682;2022-08-25T16:15:21;14.10;;;3.57;;
70929;SDS011;58588;48.102;19.682;2022-08-25T16:18:23;14.73;;;3.40;;
70929;SDS011;58588;48.102;19.682;2022-08-25T16:21:27;14.52;;;3.78;;
70929;SDS011;58588;48.102;19.682;2022-08-25T16:24:33;16.92;;;3.60;;
70929;SDS011;58588;48.102;19.682;2022-08-25T16:27:35;16.08;;;3.75;;
70929;SDS011;58588;48.102;19.682;2022-08-25T16:30:37;14.97;;;3.83;;
70929;SDS011;58588;48.102;19.682;2022-08-25T16:33:40;20.45;;;3.58;;
70929;SDS011;58588;48.102;19.682;2022-08-25T16:36:44;17.42;;;4.15;;
70929;SDS011;58588;48.102;19.682;2022-08-25T16:39:51;15.52;;;3.88;;
70929;SDS011;58588;48.102;19.682;2022-08-25T16:42:54;16.70;;;3.60;;
70929;SDS011;58588;48.102;19.682;2022-08-25T16:45:56;15.20;;;4.00;;
70929;SDS011;58588;48.102;19.682;2022-08-25T16:48:59;15.25;;;4.00;;
70929;SDS011;58588;48.102;19.682;2022-08-25T16:52:01;14.68;;;3.75;;
70929;SDS011;58588;48.102;19.682;2022-08-25T16:58:48;17.48;;;3.70;;
70929;SDS011;58588;48.102;19.682;2022-08-25T17:01:50;11.87;;;4.30;;
70929;SDS011;58588;48.102;19.682;2022-08-25T17:04:52;11.32;;;3.70;;
70929;SDS011;58588;48.102;19.682;2022-08-25T17:07:54;17.23;;;4.00;;
70929;SDS011;58588;48.102;19.682;2022-08-25T17:11:16;18.92;;;4.28;;
70929;SDS011;58588;48.102;19.682;2022-08-25T17:14:21;22.35;;;4.30;;
70929;SDS011;58588;48.102;19.682;2022-08-25T17:17:23;17.03;;;4.63;;
70929;SDS011;58588;48.102;19.682;2022-08-25T17:20:25;16.35;;;4.47;;
70929;SDS011;58588;48.102;19.682;2022-08-25T17:23:27;24.88;;;4.80;;
70929;SDS011;58588;48.102;19.682;2022-08-25T17:26:31;17.38;;;3.97;;
70929;SDS011;58588;48.102;19.682;2022-08-25T17:29:35;17.70;;;4.20;;
70929;SDS011;58588;48.102;19.682;2022-08-25T17:32:37;15.77;;;4.40;;
70929;SDS011;58588;48.102;19.682;2022-08-25T17:35:39;14.05;;;4.63;;
70929;SDS011;58588;48.102;19.682;2022-08-25T17:38:42;14.43;;;4.25;;
70929;SDS011;58588;48.102;19.682;2022-08-25T17:41:46;15.13;;;4.50;;
70929;SDS011;58588;48.102;19.682;2022-08-25T17:44:48;19.55;;;4.38;;
70929;SDS011;58588;48.102;19.682;2022-08-25T17:47:50;16.20;;;4.67;;
70929;SDS011;58588;48.102;19.682;2022-08-25T17:50:52;14.40;;;4.35;;
70929;SDS011;58588;48.102;19.682;2022-08-25T17:53:55;18.70;;;4.50;;
70929;SDS011;58588;48.102;19.682;2022-08-25T17:56:59;19.67;;;4.35;;
70929;SDS011;58588;48.102;19.682;2022-08-25T18:00:01;13.65;;;4.18;;
70929;SDS011;58588;48.102;19.682;2022-08-25T18:03:06;17.20;;;4.32;;
70929;SDS011;58588;48.102;19.682;2022-08-25T18:06:08;18.17;;;4.70;;
70929;SDS011;58588;48.102;19.682;2022-08-25T18:09:09;15.48;;;4.90;;
70929;SDS011;58588;48.102;19.682;2022-08-25T18:12:13;12.57;;;4.65;;
70929;SDS011;58588;48.102;19.682;2022-08-25T18:15:14;14.68;;;4.80;;
70929;SDS011;58588;48.102;19.682;2022-08-25T18:18:16;18.38;;;5.20;;
70929;SDS011;58588;48.102;19.682;2022-08-25T18:21:18;20.07;;;5.17;;
70929;SDS011;58588;48.102;19.682;2022-08-25T18:24:22;14.98;;;5.13;;
70929;SDS011;58588;48.102;19.682;2022-08-25T18:27:25;15.25;;;5.20;;
70929;SDS011;58588;48.102;19.682;2022-08-25T18:30:28;12.68;;;4.60;;
70929;SDS011;58588;48.102;19.682;2022-08-25T18:33:30;14.77;;;4.75;;
70929;SDS011;58588;48.102;19.682;2022-08-25T18:36:31;15.03;;;5.00;;
70929;SDS011;58588;48.102;19.682;2022-08-25T18:39:33;15.57;;;4.78;;
70929;SDS011;58588;48.102;19.682;2022-08-25T18:42:54;15.90;;;5.07;;
70929;SDS011;58588;48.102;19.682;2022-08-25T18:45:58;14.60;;;5.00;;
70929;SDS011;58588;48.102;19.682;2022-08-25T18:49:00;17.92;;;5.10;;